createdAt,value
2019-02-21T00:02:03.924Z,4.64
2019-02-21T00:04:12.067Z,4.72
2019-02-21T00:06:19.881Z,4.62
2019-02-21T00:08:27.576Z,4.46
2019-02-21T00:10:35.316Z,4.41
2019-02-21T00:12:43.016Z,4.39
2019-02-21T00:14:50.649Z,4.49
2019-02-21T00:16:58.912Z,4.48
2019-02-21T00:19:06.817Z,4.39
2019-02-21T00:21:14.647Z,4.36
2019-02-21T00:23:22.438Z,4.23
2019-02-21T00:25:30.821Z,4.25
2019-02-21T00:27:38.694Z,4.19
2019-02-21T00:29:46.454Z,4.07
2019-02-21T00:31:54.148Z,3.96
2019-02-21T00:34:01.781Z,3.94
2019-02-21T00:36:09.585Z,3.96
2019-02-21T00:38:17.137Z,4.11
2019-02-21T00:40:24.909Z,4.06
2019-02-21T00:42:32.646Z,3.99
2019-02-21T00:44:40.316Z,3.93
2019-02-21T00:46:48.058Z,3.87
2019-02-21T00:48:55.737Z,3.85
2019-02-21T00:51:03.430Z,3.69
2019-02-21T00:53:11.390Z,3.75
2019-02-21T00:55:19.197Z,3.88
2019-02-21T00:57:27.480Z,3.84
2019-02-21T00:59:35.366Z,3.77
2019-02-21T01:01:43.156Z,3.90
2019-02-21T01:03:50.778Z,3.97
2019-02-21T01:05:58.608Z,3.91
2019-02-21T01:08:07.059Z,3.92
2019-02-21T01:10:14.643Z,3.81
2019-02-21T01:12:22.644Z,3.90
2019-02-21T01:14:30.602Z,3.91
2019-02-21T01:16:38.320Z,3.91
2019-02-21T01:18:45.821Z,4.02
2019-02-21T01:20:53.599Z,4.12
2019-02-21T01:23:01.278Z,4.00
2019-02-21T01:25:09.245Z,3.98
2019-02-21T01:27:17.109Z,3.96
2019-02-21T01:29:24.923Z,4.08
2019-02-21T01:31:32.584Z,3.99
2019-02-21T01:33:40.324Z,4.05
2019-02-21T01:35:48.072Z,4.12
2019-02-21T01:37:56.202Z,4.09
2019-02-21T01:40:03.958Z,4.10
2019-02-21T01:42:11.663Z,4.05
2019-02-21T01:44:19.539Z,4.12
2019-02-21T01:46:27.252Z,4.08
2019-02-21T01:48:34.688Z,4.03
2019-02-21T01:50:42.360Z,4.17
2019-02-21T01:52:50.018Z,3.96
2019-02-21T01:54:57.889Z,4.10
2019-02-21T01:57:05.614Z,4.02
2019-02-21T01:59:13.322Z,3.97
2019-02-21T02:01:21.178Z,4.08
2019-02-21T02:03:29.084Z,4.12
2019-02-21T02:05:37.030Z,4.13
2019-02-21T02:07:44.991Z,4.03
2019-02-21T02:09:52.523Z,4.06
2019-02-21T02:11:59.985Z,3.98
2019-02-21T02:14:07.802Z,3.97
2019-02-21T02:16:15.496Z,3.94
2019-02-21T02:18:23.363Z,4.11
2019-02-21T02:20:31.339Z,3.98
2019-02-21T02:22:39.156Z,4.08
2019-02-21T02:24:46.796Z,3.98
2019-02-21T02:26:54.561Z,4.06
2019-02-21T02:29:02.311Z,3.99
2019-02-21T02:31:22.026Z,3.96
2019-02-21T02:33:19.676Z,3.93
2019-02-21T02:35:27.309Z,3.94
2019-02-21T02:37:35.055Z,4.04
2019-02-21T02:39:42.659Z,4.13
2019-02-21T02:41:50.334Z,4.10
2019-02-21T02:43:57.759Z,4.09
2019-02-21T02:46:05.611Z,4.06
2019-02-21T02:48:13.352Z,3.97
2019-02-21T02:50:21.087Z,4.07
2019-02-21T02:52:28.685Z,4.01
2019-02-21T02:54:37.037Z,4.06
2019-02-21T02:56:44.824Z,4.16
2019-02-21T02:58:52.543Z,4.07
2019-02-21T03:01:00.127Z,4.05
2019-02-21T03:03:07.653Z,4.17
2019-02-21T03:05:15.325Z,4.13
2019-02-21T03:07:22.891Z,4.16
2019-02-21T03:09:30.814Z,4.15
2019-02-21T03:11:38.589Z,4.18
2019-02-21T03:13:46.353Z,4.14
2019-02-21T03:15:54.055Z,4.16
2019-02-21T03:18:01.961Z,4.15
2019-02-21T03:20:10.531Z,4.12
2019-02-21T03:22:18.316Z,4.20
2019-02-21T03:24:26.140Z,4.23
2019-02-21T03:26:33.923Z,4.21
2019-02-21T03:28:41.626Z,4.24
2019-02-21T03:30:49.406Z,4.27
2019-02-21T03:32:57.050Z,4.28
2019-02-21T03:35:05.028Z,4.21
2019-02-21T03:37:12.779Z,4.21
2019-02-21T03:39:20.473Z,4.31
2019-02-21T03:41:28.091Z,4.34
2019-02-21T03:43:35.983Z,4.27
2019-02-21T03:45:43.723Z,4.32
2019-02-21T03:47:51.350Z,4.33
2019-02-21T03:49:59.216Z,4.35
2019-02-21T03:52:06.929Z,4.31
2019-02-21T03:54:14.731Z,4.31
2019-02-21T03:56:22.586Z,4.30
2019-02-21T03:58:30.515Z,4.35
2019-02-21T04:00:38.369Z,4.34
2019-02-21T04:02:46.010Z,4.30
2019-02-21T04:04:53.795Z,4.34
2019-02-21T04:07:01.371Z,4.37
2019-02-21T04:09:10.986Z,4.32
2019-02-21T04:11:18.595Z,4.33
2019-02-21T04:13:26.357Z,4.31
2019-02-21T04:15:34.035Z,4.37
2019-02-21T04:17:41.916Z,4.33
2019-02-21T04:19:49.706Z,4.38
2019-02-21T04:21:57.513Z,4.37
2019-02-21T04:24:05.399Z,4.37
2019-02-21T04:26:13.124Z,4.35
2019-02-21T04:28:20.897Z,4.41
2019-02-21T04:30:28.693Z,4.31
2019-02-21T04:32:36.722Z,4.34
2019-02-21T04:34:44.598Z,4.35
2019-02-21T04:36:52.354Z,4.39
2019-02-21T04:39:00.082Z,4.39
2019-02-21T04:41:08.043Z,4.41
2019-02-21T04:43:16.088Z,4.37
2019-02-21T04:45:23.919Z,4.42
2019-02-21T04:47:31.656Z,4.39
2019-02-21T04:49:39.431Z,4.33
2019-02-21T04:51:47.381Z,4.34
2019-02-21T04:53:55.146Z,4.37
2019-02-21T04:56:03.000Z,4.37
2019-02-21T04:58:10.921Z,4.29
2019-02-21T05:00:19.035Z,4.31
2019-02-21T05:02:29.530Z,4.31
2019-02-21T05:04:37.020Z,4.29
2019-02-21T05:06:44.934Z,4.28
2019-02-21T05:08:52.785Z,4.22
2019-02-21T05:11:01.031Z,4.30
2019-02-21T05:13:09.442Z,4.27
2019-02-21T05:15:17.372Z,4.23
2019-02-21T05:17:25.707Z,4.25
2019-02-21T05:19:34.233Z,4.26
2019-02-21T05:21:42.784Z,4.28
2019-02-21T05:23:50.946Z,4.29
2019-02-21T05:25:58.908Z,4.31
2019-02-21T05:28:28.898Z,4.32
2019-02-21T05:30:36.787Z,4.36
2019-02-21T05:33:00.360Z,4.29
2019-02-21T05:35:31.445Z,4.30
2019-02-21T05:37:58.440Z,4.32
2019-02-21T05:40:24.057Z,4.27
2019-02-21T05:42:53.816Z,4.27
2019-02-21T05:45:18.871Z,4.25
2019-02-21T05:47:48.800Z,4.30
2019-02-21T05:50:28.089Z,4.25
2019-02-21T05:52:52.542Z,4.21
2019-02-21T05:55:18.211Z,4.24
2019-02-21T05:57:43.692Z,4.23
2019-02-21T06:00:09.242Z,4.27
2019-02-21T06:02:53.170Z,4.28
2019-02-21T06:05:10.365Z,4.31
2019-02-21T06:07:37.162Z,4.30
2019-02-21T06:10:00.154Z,4.28
2019-02-21T06:12:33.705Z,4.31
2019-02-21T06:15:04.435Z,4.27
2019-02-21T06:17:28.719Z,4.28
2019-02-21T06:19:43.585Z,4.30
2019-02-21T06:22:09.683Z,4.27
2019-02-21T06:24:21.679Z,4.28
2019-02-21T06:26:39.542Z,4.33
2019-02-21T06:29:06.730Z,4.32
2019-02-21T06:31:17.951Z,4.35
2019-02-21T06:33:28.225Z,4.37
2019-02-21T06:35:35.383Z,4.35
2019-02-21T06:37:43.160Z,4.36
2019-02-21T06:39:50.901Z,4.38
2019-02-21T06:42:00.146Z,4.39
2019-02-21T06:44:08.043Z,4.39
2019-02-21T06:46:15.920Z,4.40
2019-02-21T06:48:23.773Z,4.41
2019-02-21T06:50:31.497Z,4.42
2019-02-21T06:52:40.684Z,4.38
2019-02-21T06:54:48.793Z,4.43
2019-02-21T06:56:56.506Z,4.47
2019-02-21T06:59:04.308Z,4.50
2019-02-21T07:01:12.131Z,4.44
2019-02-21T07:03:19.917Z,4.43
2019-02-21T07:05:27.980Z,4.52
2019-02-21T07:07:35.781Z,4.53
2019-02-21T07:09:43.544Z,4.56
2019-02-21T07:11:51.190Z,4.56
2019-02-21T07:13:59.157Z,4.54
2019-02-21T07:16:07.053Z,4.58
2019-02-21T07:18:14.875Z,4.54
2019-02-21T07:20:22.643Z,4.57
2019-02-21T07:22:30.419Z,4.58
2019-02-21T07:24:38.863Z,4.62
2019-02-21T07:26:46.499Z,4.64
2019-02-21T07:28:54.247Z,4.63
2019-02-21T07:31:02.068Z,4.63
2019-02-21T07:33:09.857Z,4.61
2019-02-21T07:35:17.535Z,4.62
2019-02-21T07:37:25.322Z,4.65
2019-02-21T07:39:36.127Z,4.70
2019-02-21T07:41:42.665Z,4.69
2019-02-21T07:43:50.338Z,4.74
2019-02-21T07:45:58.253Z,4.71
2019-02-21T07:48:06.296Z,4.71
2019-02-21T07:50:14.206Z,4.68
2019-02-21T07:52:22.090Z,4.69
2019-02-21T07:54:29.902Z,4.71
2019-02-21T07:56:42.021Z,4.74
2019-02-21T07:58:47.066Z,4.74
2019-02-21T08:00:55.057Z,4.75
2019-02-21T08:03:03.000Z,4.76
2019-02-21T08:05:11.085Z,4.80
2019-02-21T08:07:18.985Z,4.79
2019-02-21T08:09:27.978Z,4.83
2019-02-21T08:11:36.004Z,4.85
2019-02-21T08:13:44.428Z,4.89
2019-02-21T08:15:52.230Z,4.92
2019-02-21T08:18:00.110Z,4.92
2019-02-21T08:20:09.705Z,4.90
2019-02-21T08:22:17.410Z,4.91
2019-02-21T08:24:25.267Z,4.94
2019-02-21T08:26:33.014Z,4.95
2019-02-21T08:28:40.951Z,4.95
2019-02-21T08:30:48.876Z,4.97
2019-02-21T08:33:21.458Z,4.95
2019-02-21T08:35:29.495Z,5.00
2019-02-21T08:37:37.212Z,5.04
2019-02-21T08:39:45.104Z,5.05
2019-02-21T08:41:55.114Z,5.04
2019-02-21T08:44:02.617Z,5.07
2019-02-21T08:46:10.356Z,5.08
2019-02-21T08:48:18.201Z,5.09
2019-02-21T08:50:26.044Z,5.11
2019-02-21T08:52:33.911Z,5.14
2019-02-21T08:54:41.658Z,5.13
2019-02-21T08:56:49.782Z,5.12
2019-02-21T08:58:57.526Z,5.11
2019-02-21T09:01:05.455Z,5.12
2019-02-21T09:03:13.394Z,5.13
2019-02-21T09:05:21.365Z,5.14
2019-02-21T09:07:29.068Z,5.15
2019-02-21T09:09:37.006Z,5.17
2019-02-21T09:11:44.684Z,5.16
2019-02-21T09:13:52.341Z,5.16
2019-02-21T09:16:00.089Z,5.15
2019-02-21T09:18:07.903Z,5.18
2019-02-21T09:20:16.083Z,5.15
2019-02-21T09:22:23.759Z,5.19
2019-02-21T09:24:39.152Z,5.19
2019-02-21T09:26:41.238Z,5.20
2019-02-21T09:28:49.118Z,5.22
2019-02-21T09:30:57.088Z,5.21
2019-02-21T09:33:04.979Z,5.24
2019-02-21T09:35:12.973Z,5.26
2019-02-21T09:37:20.806Z,5.30
2019-02-21T09:39:28.773Z,5.33
2019-02-21T09:41:36.481Z,5.35
2019-02-21T09:43:44.269Z,5.36
2019-02-21T09:45:52.177Z,5.39
2019-02-21T09:47:59.914Z,5.39
2019-02-21T09:50:08.273Z,5.39
2019-02-21T09:52:16.139Z,5.41
2019-02-21T09:54:24.145Z,5.40
2019-02-21T09:56:32.084Z,5.43
2019-02-21T09:58:39.878Z,5.44
2019-02-21T10:00:47.592Z,5.45
2019-02-21T10:02:56.711Z,5.44
2019-02-21T10:05:05.683Z,5.44
2019-02-21T10:07:13.449Z,5.44
2019-02-21T10:09:21.193Z,5.47
2019-02-21T10:11:29.023Z,5.48
2019-02-21T10:13:36.751Z,5.50
2019-02-21T10:15:46.973Z,5.52
2019-02-21T10:17:54.358Z,5.53
2019-02-21T10:20:04.139Z,5.52
2019-02-21T10:22:13.521Z,5.51
2019-02-21T10:24:21.199Z,5.53
2019-02-21T10:26:29.063Z,5.54
2019-02-21T10:28:36.955Z,5.54
2019-02-21T10:30:44.769Z,5.56
2019-02-21T10:32:52.563Z,5.52
2019-02-21T10:35:00.365Z,5.52
2019-02-21T10:37:08.094Z,5.51
2019-02-21T10:39:16.039Z,5.51
2019-02-21T10:41:23.761Z,5.50
2019-02-21T10:43:31.520Z,5.50
2019-02-21T10:45:47.476Z,5.48
2019-02-21T10:47:48.607Z,5.53
2019-02-21T10:49:56.426Z,5.55
2019-02-21T10:52:04.275Z,5.59
2019-02-21T10:54:12.260Z,5.62
2019-02-21T10:56:20.194Z,5.66
2019-02-21T10:58:27.952Z,5.68
2019-02-21T11:00:35.807Z,5.71
2019-02-21T11:02:43.788Z,5.73
2019-02-21T11:04:55.087Z,5.75
2019-02-21T11:07:01.904Z,5.76
2019-02-21T11:09:14.853Z,5.81
2019-02-21T11:11:22.610Z,5.82
2019-02-21T11:13:30.427Z,5.82
2019-02-21T11:15:38.202Z,5.82
2019-02-21T11:17:45.952Z,5.82
2019-02-21T11:19:53.739Z,5.83
2019-02-21T11:22:01.562Z,5.85
2019-02-21T11:24:09.503Z,5.84
2019-02-21T11:26:17.544Z,5.82
2019-02-21T11:28:25.240Z,5.85
2019-02-21T11:30:33.106Z,5.84
2019-02-21T11:32:40.891Z,5.84
2019-02-21T11:34:48.604Z,5.81
2019-02-21T11:36:56.280Z,5.81
2019-02-21T11:39:05.395Z,5.78
2019-02-21T11:41:13.335Z,5.77
2019-02-21T11:43:21.198Z,5.77
2019-02-21T11:45:28.847Z,5.77
2019-02-21T11:47:36.693Z,5.75
2019-02-21T11:49:44.348Z,5.73
2019-02-21T11:51:52.107Z,5.74
2019-02-21T11:54:00.035Z,5.73
2019-02-21T11:56:07.861Z,5.70
2019-02-21T11:58:15.473Z,5.70
2019-02-21T12:00:25.514Z,5.69
2019-02-21T12:02:38.867Z,5.71
2019-02-21T12:04:42.583Z,5.66
2019-02-21T12:06:50.378Z,5.68
2019-02-21T12:08:58.234Z,5.66
2019-02-21T12:11:06.000Z,5.65
2019-02-21T12:13:13.776Z,5.66
2019-02-21T12:15:21.582Z,5.66
2019-02-21T12:17:29.438Z,5.66
2019-02-21T12:19:37.259Z,5.66
2019-02-21T12:21:44.986Z,5.67
2019-02-21T12:23:52.709Z,5.71
2019-02-21T12:26:00.493Z,5.71
2019-02-21T12:28:08.415Z,5.70
2019-02-21T12:30:18.628Z,5.72
2019-02-21T12:32:26.290Z,5.74
2019-02-21T12:34:34.109Z,5.73
2019-02-21T12:36:41.642Z,5.73
2019-02-21T12:38:49.323Z,5.72
2019-02-21T12:40:57.058Z,5.72
2019-02-21T12:43:04.858Z,5.73
2019-02-21T12:45:15.806Z,5.73
2019-02-21T12:47:24.279Z,5.71
2019-02-21T12:49:32.709Z,5.74
2019-02-21T12:51:40.542Z,5.74
2019-02-21T12:53:48.676Z,5.73
2019-02-21T12:55:56.603Z,5.77
2019-02-21T12:58:04.522Z,5.78
2019-02-21T13:00:16.059Z,5.80
2019-02-21T13:02:23.910Z,5.81
2019-02-21T13:04:33.463Z,5.81
2019-02-21T13:06:41.486Z,5.85
2019-02-21T13:08:49.374Z,5.84
2019-02-21T13:10:57.347Z,5.84
2019-02-21T13:13:05.058Z,5.82
2019-02-21T13:15:14.198Z,5.86
2019-02-21T13:17:22.333Z,5.82
2019-02-21T13:19:30.115Z,5.83
2019-02-21T13:21:38.043Z,5.82
2019-02-21T13:23:45.817Z,5.81
2019-02-21T13:25:53.615Z,5.75
2019-02-21T13:28:01.511Z,5.77
2019-02-21T13:30:12.657Z,5.76
2019-02-21T13:32:20.433Z,5.72
2019-02-21T13:34:28.206Z,5.71
2019-02-21T13:36:36.186Z,5.69
2019-02-21T13:38:43.883Z,5.68
2019-02-21T13:40:51.774Z,5.73
2019-02-21T13:42:59.695Z,5.71
2019-02-21T13:45:08.400Z,5.70
2019-02-21T13:47:16.279Z,5.65
2019-02-21T13:49:24.152Z,5.55
2019-02-21T13:51:32.146Z,5.55
2019-02-21T13:53:39.982Z,5.54
2019-02-21T13:55:47.755Z,5.51
2019-02-21T13:57:55.609Z,5.49
2019-02-21T14:00:03.433Z,5.49
2019-02-21T14:02:11.200Z,5.50
2019-02-21T14:04:19.214Z,5.51
2019-02-21T14:06:27.468Z,5.55
2019-02-21T14:08:35.411Z,5.52
2019-02-21T14:10:43.067Z,5.53
2019-02-21T14:12:51.114Z,5.53
2019-02-21T14:14:58.873Z,5.51
2019-02-21T14:17:06.698Z,5.52
2019-02-21T14:19:14.639Z,5.52
2019-02-21T14:21:22.495Z,5.48
2019-02-21T14:23:30.502Z,5.48
2019-02-21T14:25:41.096Z,5.48
2019-02-21T14:27:47.795Z,5.47
2019-02-21T14:29:55.565Z,5.42
2019-02-21T14:32:03.338Z,5.43
2019-02-21T14:34:11.068Z,5.43
2019-02-21T14:36:19.368Z,5.43
2019-02-21T14:38:28.425Z,5.44
2019-02-21T14:40:36.561Z,5.43
2019-02-21T14:42:44.315Z,5.42
2019-02-21T14:44:52.237Z,5.41
2019-02-21T14:47:00.095Z,5.42
2019-02-21T14:49:08.166Z,5.41
2019-02-21T14:51:16.218Z,5.40
2019-02-21T14:53:24.264Z,5.41
2019-02-21T14:55:32.014Z,5.43
2019-02-21T14:57:41.204Z,5.40
2019-02-21T14:59:49.195Z,5.41
2019-02-21T15:01:57.643Z,5.44
2019-02-21T15:04:08.674Z,5.38
2019-02-21T15:06:26.831Z,5.41
2019-02-21T15:08:27.738Z,5.36
2019-02-21T15:10:35.724Z,5.36
2019-02-21T15:12:43.887Z,5.41
2019-02-21T15:14:51.902Z,5.41
2019-02-21T15:16:59.773Z,5.39
2019-02-21T15:19:07.854Z,5.40
2019-02-21T15:21:15.749Z,5.35
2019-02-21T15:23:23.626Z,5.35
2019-02-21T15:25:31.557Z,5.36
2019-02-21T15:27:39.897Z,5.38
2019-02-21T15:29:47.854Z,5.39
2019-02-21T15:31:55.704Z,5.33
2019-02-21T15:34:03.562Z,5.34
2019-02-21T15:36:11.856Z,5.33
2019-02-21T15:38:20.445Z,5.36
2019-02-21T15:40:28.387Z,5.36
2019-02-21T15:42:35.932Z,5.31
2019-02-21T15:44:43.944Z,5.30
2019-02-21T15:46:52.003Z,5.32
2019-02-21T15:49:02.098Z,5.30
2019-02-21T15:51:10.532Z,5.36
2019-02-21T15:53:18.287Z,5.38
2019-02-21T15:55:26.029Z,5.33
2019-02-21T15:57:34.155Z,5.41
2019-02-21T15:59:42.181Z,5.40
2019-02-21T16:01:50.179Z,5.35
2019-02-21T16:03:58.440Z,5.35
2019-02-21T16:06:06.191Z,5.33
2019-02-21T16:08:15.220Z,5.34
2019-02-21T16:10:23.673Z,5.35
2019-02-21T16:12:31.689Z,5.39
2019-02-21T16:14:39.637Z,5.35
2019-02-21T16:16:47.480Z,5.33
2019-02-21T16:18:55.261Z,5.34
2019-02-21T16:21:03.305Z,5.35
2019-02-21T16:23:11.568Z,5.35
2019-02-21T16:25:21.245Z,5.36
2019-02-21T16:27:29.116Z,5.33
2019-02-21T16:29:36.879Z,5.32
2019-02-21T16:31:44.572Z,5.29
2019-02-21T16:33:52.444Z,5.30
2019-02-21T16:36:00.830Z,5.33
2019-02-21T16:38:08.731Z,5.38
2019-02-21T16:40:17.005Z,5.37
2019-02-21T16:42:24.937Z,5.39
2019-02-21T16:44:32.943Z,5.37
2019-02-21T16:46:41.017Z,5.40
2019-02-21T16:48:48.700Z,5.41
2019-02-21T16:50:59.295Z,5.35
2019-02-21T16:53:07.460Z,5.34
2019-02-21T16:55:20.104Z,5.38
2019-02-21T16:57:28.568Z,5.35
2019-02-21T16:59:36.661Z,5.42
2019-02-21T17:01:44.704Z,5.40
2019-02-21T17:03:52.524Z,5.42
2019-02-21T17:06:00.712Z,5.39
2019-02-21T17:08:08.731Z,5.34
2019-02-21T17:10:16.747Z,5.34
2019-02-21T17:12:24.571Z,5.36
2019-02-21T17:14:32.429Z,5.33
2019-02-21T17:16:40.743Z,5.36
2019-02-21T17:18:48.895Z,5.31
2019-02-21T17:20:56.864Z,5.36
2019-02-21T17:23:04.648Z,5.41
2019-02-21T17:25:13.613Z,5.33
2019-02-21T17:27:21.406Z,5.38
2019-02-21T17:29:29.336Z,5.29
2019-02-21T17:31:37.394Z,5.36
2019-02-21T17:33:45.010Z,5.36
2019-02-21T17:35:52.790Z,5.38
2019-02-21T17:38:00.709Z,5.38
2019-02-21T17:40:10.705Z,5.42
2019-02-21T17:42:18.583Z,5.38
2019-02-21T17:44:26.313Z,5.42
2019-02-21T17:46:34.046Z,5.41
2019-02-21T17:48:42.191Z,5.39
2019-02-21T17:50:49.835Z,5.38
2019-02-21T17:52:58.079Z,5.41
2019-02-21T17:55:06.278Z,5.37
2019-02-21T17:57:14.138Z,5.40
2019-02-21T17:59:22.126Z,5.41
2019-02-21T18:01:30.258Z,5.34
2019-02-21T18:03:38.048Z,5.34
2019-02-21T18:05:45.841Z,5.40
2019-02-21T18:07:53.988Z,5.44
2019-02-21T18:10:01.856Z,5.43
2019-02-21T18:12:09.787Z,5.44
2019-02-21T18:14:17.349Z,5.46
2019-02-21T18:16:25.441Z,5.43
2019-02-21T18:18:33.279Z,5.43
2019-02-21T18:20:41.137Z,5.45
2019-02-21T18:22:48.852Z,5.48
2019-02-21T18:24:56.473Z,5.48
2019-02-21T18:27:04.295Z,5.53
2019-02-21T18:29:12.292Z,5.52
2019-02-21T18:31:20.460Z,5.49
2019-02-21T18:33:27.978Z,5.47
2019-02-21T18:35:35.682Z,5.50
2019-02-21T18:37:47.364Z,5.54
2019-02-21T18:39:54.961Z,5.49
2019-02-21T18:42:03.596Z,5.51
2019-02-21T18:44:12.233Z,5.53
2019-02-21T18:46:20.405Z,5.54
2019-02-21T18:48:28.155Z,5.53
2019-02-21T18:50:38.533Z,5.54
2019-02-21T18:52:45.385Z,5.56
2019-02-21T18:54:53.967Z,5.56
2019-02-21T18:57:02.404Z,5.56
2019-02-21T18:59:10.648Z,5.55
2019-02-21T19:01:19.272Z,5.59
2019-02-21T19:03:27.640Z,5.52
2019-02-21T19:05:36.519Z,5.56
2019-02-21T19:07:44.579Z,5.56
2019-02-21T19:09:52.648Z,5.55
2019-02-21T19:12:00.498Z,5.57
2019-02-21T19:14:08.402Z,5.58
2019-02-21T19:16:16.157Z,5.59
2019-02-21T19:18:24.395Z,5.60
2019-02-21T19:20:32.873Z,5.60
2019-02-21T19:22:41.294Z,5.62
2019-02-21T19:24:49.839Z,5.56
2019-02-21T19:26:57.679Z,5.56
2019-02-21T19:29:05.844Z,5.59
2019-02-21T19:31:17.883Z,5.56
2019-02-21T19:33:25.867Z,5.59
2019-02-21T19:35:34.054Z,5.56
2019-02-21T19:37:42.171Z,5.56
2019-02-21T19:39:50.503Z,5.59
2019-02-21T19:41:59.861Z,5.56
2019-02-21T19:44:09.283Z,5.58
2019-02-21T19:46:17.581Z,5.59
2019-02-21T19:48:25.464Z,5.63
2019-02-21T19:50:33.546Z,5.62
2019-02-21T19:52:41.628Z,5.60
2019-02-21T19:54:49.886Z,5.61
2019-02-21T19:56:57.914Z,5.61
2019-02-21T19:59:05.789Z,5.59
2019-02-21T20:01:13.993Z,5.61
2019-02-21T20:03:21.986Z,5.60
2019-02-21T20:05:30.212Z,5.60
2019-02-21T20:07:38.258Z,5.60
2019-02-21T20:09:46.212Z,5.55
2019-02-21T20:11:54.171Z,5.59
2019-02-21T20:14:02.337Z,5.61
2019-02-21T20:16:10.264Z,5.59
2019-02-21T20:18:18.334Z,5.57
2019-02-21T20:20:27.882Z,5.63
2019-02-21T20:22:36.243Z,5.60
2019-02-21T20:24:44.304Z,5.62
2019-02-21T20:26:52.332Z,5.62
2019-02-21T20:29:00.623Z,5.63
2019-02-21T20:31:08.648Z,5.63
2019-02-21T20:33:18.024Z,5.59
2019-02-21T20:35:25.735Z,5.61
2019-02-21T20:37:38.276Z,5.63
2019-02-21T20:39:46.272Z,5.65
2019-02-21T20:41:54.263Z,5.64
2019-02-21T20:44:03.387Z,5.64
2019-02-21T20:46:11.326Z,5.65
2019-02-21T20:48:19.137Z,5.68
2019-02-21T20:50:28.376Z,5.71
2019-02-21T20:52:36.254Z,5.73
2019-02-21T20:54:44.328Z,5.76
2019-02-21T20:56:52.175Z,5.62
2019-02-21T20:59:00.191Z,5.61
2019-02-21T21:01:08.315Z,5.47
2019-02-21T21:03:16.548Z,5.24
2019-02-21T21:05:24.395Z,5.21
2019-02-21T21:07:33.289Z,4.93
2019-02-21T21:09:41.551Z,4.87
2019-02-21T21:11:49.369Z,4.83
2019-02-21T21:13:57.060Z,4.71
2019-02-21T21:16:05.086Z,4.83
2019-02-21T21:18:13.046Z,4.50
2019-02-21T21:20:21.030Z,4.40
2019-02-21T21:22:28.804Z,4.49
2019-02-21T21:24:36.498Z,4.54
2019-02-21T21:26:44.444Z,4.24
2019-02-21T21:28:53.580Z,4.12
2019-02-21T21:31:01.576Z,4.12
2019-02-21T21:33:09.424Z,4.02
2019-02-21T21:35:17.301Z,4.01
2019-02-21T21:37:25.298Z,3.69
2019-02-21T21:39:33.387Z,3.65
2019-02-21T21:41:41.286Z,3.51
2019-02-21T21:43:50.767Z,3.51
2019-02-21T21:45:58.892Z,3.46
2019-02-21T21:48:09.774Z,3.25
2019-02-21T21:50:18.802Z,3.29
2019-02-21T21:52:26.788Z,3.07
2019-02-21T21:54:35.078Z,2.94
2019-02-21T21:56:43.309Z,2.82
2019-02-21T21:58:51.030Z,2.66
2019-02-21T22:01:00.952Z,2.66
2019-02-21T22:03:08.909Z,2.56
2019-02-21T22:05:16.842Z,2.49
2019-02-21T22:07:24.664Z,2.38
2019-02-21T22:09:33.148Z,2.44
2019-02-21T22:11:40.918Z,2.34
2019-02-21T22:13:48.697Z,1.96
2019-02-21T22:15:56.831Z,2.32
2019-02-21T22:18:04.887Z,1.88
2019-02-21T22:20:13.451Z,1.61
2019-02-21T22:22:21.183Z,1.33
2019-02-21T22:24:28.959Z,1.35
2019-02-21T22:26:37.195Z,1.40
2019-02-21T22:28:45.591Z,1.33
2019-02-21T22:30:53.366Z,1.15
2019-02-21T22:33:01.169Z,0.94
2019-02-21T22:35:09.070Z,0.95
2019-02-21T22:37:17.184Z,1.06
2019-02-21T22:39:24.940Z,0.85
2019-02-21T22:41:32.645Z,1.06
2019-02-21T22:43:40.433Z,0.77
2019-02-21T22:45:48.385Z,0.92
2019-02-21T22:47:55.988Z,0.90
2019-02-21T22:50:06.201Z,0.72
2019-02-21T22:52:14.061Z,0.65
2019-02-21T22:54:21.982Z,0.66
2019-02-21T22:56:29.911Z,1.14
2019-02-21T22:58:44.799Z,1.20
2019-02-21T23:01:28.968Z,0.79
2019-02-21T23:04:14.323Z,0.59
2019-02-21T23:07:18.891Z,0.59
2019-02-21T23:09:28.216Z,0.59
2019-02-21T23:11:36.247Z,0.70
2019-02-21T23:13:44.506Z,0.79
2019-02-21T23:15:52.231Z,0.71
2019-02-21T23:18:00.029Z,0.53
2019-02-21T23:20:09.694Z,0.84
2019-02-21T23:22:17.659Z,1.07
2019-02-21T23:24:25.581Z,0.75
2019-02-21T23:26:33.272Z,1.00
2019-02-21T23:28:40.912Z,0.80
2019-02-21T23:30:48.783Z,1.04
2019-02-21T23:32:56.434Z,1.22
2019-02-21T23:35:04.236Z,1.17
2019-02-21T23:37:12.064Z,0.77
2019-02-21T23:39:19.870Z,0.72
2019-02-21T23:41:27.501Z,0.35
2019-02-21T23:43:35.285Z,0.34
2019-02-21T23:45:43.136Z,0.31
2019-02-21T23:47:51.089Z,0.56
2019-02-21T23:49:58.910Z,0.68
2019-02-21T23:52:06.847Z,0.51
2019-02-21T23:54:14.578Z,0.48
2019-02-21T23:56:22.537Z,0.47
2019-02-21T23:58:30.348Z,0.23
